createdAt,value
2022-12-24T00:03:31.841Z,45.88
2022-12-24T00:06:06.073Z,43.30
2022-12-24T00:08:38.951Z,39.20
2022-12-24T00:11:13.338Z,34.03
2022-12-24T00:13:46.453Z,36.00
2022-12-24T00:18:51.975Z,43.10
2022-12-24T00:21:24.805Z,45.60
2022-12-24T00:23:57.773Z,47.05
2022-12-24T00:26:32.101Z,32.55
2022-12-24T00:29:04.991Z,39.67
2022-12-24T00:31:37.687Z,47.33
2022-12-24T00:34:10.628Z,45.17
2022-12-24T00:36:43.638Z,37.47
2022-12-24T00:39:16.540Z,40.63
2022-12-24T00:41:50.988Z,43.17
2022-12-24T00:44:24.456Z,38.88
2022-12-24T00:46:57.250Z,42.75
2022-12-24T00:49:30.083Z,38.75
2022-12-24T00:52:03.436Z,51.80
2022-12-24T00:54:36.475Z,48.45
2022-12-24T00:57:10.893Z,49.15
2022-12-24T00:59:44.068Z,46.28
2022-12-24T01:02:17.150Z,39.30
2022-12-24T01:05:08.256Z,46.47
2022-12-24T01:07:43.907Z,38.15
2022-12-24T01:10:18.973Z,41.90
2022-12-24T01:12:53.124Z,43.13
2022-12-24T01:15:26.093Z,35.42
2022-12-24T01:17:59.149Z,30.15
2022-12-24T01:23:06.971Z,36.17
2022-12-24T01:25:40.064Z,45.90
2022-12-24T01:28:14.290Z,32.67
2022-12-24T01:30:47.373Z,41.72
2022-12-24T01:33:20.462Z,36.25
2022-12-24T01:38:28.308Z,34.95
2022-12-24T01:41:18.692Z,34.13
2022-12-24T01:43:52.979Z,36.95
2022-12-24T01:46:30.711Z,41.10
2022-12-24T01:49:07.048Z,32.15
2022-12-24T01:51:43.681Z,35.13
2022-12-24T01:54:22.272Z,36.53
2022-12-24T01:57:03.789Z,36.00
2022-12-24T01:59:40.059Z,34.92
2022-12-24T02:02:14.326Z,28.85
2022-12-24T02:04:52.106Z,32.55
2022-12-24T02:07:25.530Z,28.92
2022-12-24T02:10:00.392Z,26.98
2022-12-24T02:12:38.048Z,29.45
2022-12-24T02:15:15.430Z,27.85
2022-12-24T02:17:58.225Z,31.05
2022-12-24T02:20:48.103Z,35.03
2022-12-24T02:23:39.847Z,28.92
2022-12-24T02:26:28.631Z,37.97
2022-12-24T02:29:21.721Z,27.10
2022-12-24T02:32:04.061Z,39.15
2022-12-24T02:34:41.404Z,33.27
2022-12-24T02:37:18.954Z,30.45
2022-12-24T02:39:56.343Z,37.28
2022-12-24T02:42:43.989Z,38.42
2022-12-24T02:45:19.261Z,35.53
2022-12-24T02:47:55.854Z,29.40
2022-12-24T02:50:29.752Z,28.75
2022-12-24T02:53:02.525Z,36.30
2022-12-24T02:55:46.154Z,36.30
2022-12-24T02:58:34.169Z,37.40
2022-12-24T03:01:18.813Z,28.02
2022-12-24T03:04:08.034Z,31.55
2022-12-24T03:06:46.374Z,27.20
2022-12-24T03:09:27.148Z,38.50
2022-12-24T03:12:05.717Z,29.42
2022-12-24T03:14:41.569Z,30.25
2022-12-24T03:17:17.377Z,35.13
2022-12-24T03:19:52.283Z,36.50
2022-12-24T03:22:28.239Z,30.27
2022-12-24T03:25:01.452Z,37.40
2022-12-24T03:27:35.853Z,28.02
2022-12-24T03:30:11.894Z,40.50
2022-12-24T03:32:44.780Z,31.58
2022-12-24T03:35:19.325Z,35.00
2022-12-24T03:37:53.345Z,37.25
2022-12-24T03:40:26.054Z,30.92
2022-12-24T03:42:58.941Z,27.00
2022-12-24T03:48:04.843Z,32.72
2022-12-24T03:53:12.384Z,35.70
2022-12-24T03:55:45.252Z,27.63
2022-12-24T04:00:50.892Z,28.00
2022-12-24T04:03:24.601Z,40.25
2022-12-24T04:06:08.101Z,30.63
2022-12-24T04:08:41.902Z,32.78
2022-12-24T04:11:18.216Z,36.88
2022-12-24T04:13:51.358Z,32.42
2022-12-24T04:16:24.852Z,27.95
2022-12-24T04:18:57.725Z,30.88
2022-12-24T04:21:32.013Z,40.95
2022-12-24T04:24:05.251Z,34.40
2022-12-24T04:26:37.992Z,33.63
2022-12-24T04:29:10.950Z,34.45
2022-12-24T04:34:16.496Z,23.83
2022-12-24T04:39:24.007Z,32.40
2022-12-24T04:44:29.632Z,30.13
2022-12-24T04:47:02.385Z,40.25
2022-12-24T04:49:35.536Z,34.20
2022-12-24T04:54:42.532Z,41.75
2022-12-24T04:57:15.513Z,39.58
2022-12-24T05:02:21.368Z,42.87
2022-12-24T05:04:54.855Z,43.72
2022-12-24T05:07:28.924Z,43.30
2022-12-24T05:10:01.767Z,45.85
2022-12-24T05:12:34.567Z,39.90
2022-12-24T05:15:08.228Z,32.75
2022-12-24T05:17:41.192Z,39.83
2022-12-24T05:23:05.622Z,42.38
2022-12-24T05:25:58.071Z,48.00
2022-12-24T05:28:31.000Z,37.13
2022-12-24T05:31:03.805Z,45.88
2022-12-24T05:33:36.713Z,32.60
2022-12-24T05:38:44.326Z,43.20
2022-12-24T05:41:17.517Z,36.65
2022-12-24T05:43:50.644Z,38.05
2022-12-24T05:46:25.033Z,40.15
2022-12-24T05:48:58.044Z,34.80
2022-12-24T05:54:05.232Z,52.27
2022-12-24T05:56:38.326Z,44.35
2022-12-24T05:59:11.669Z,38.00
2022-12-24T06:01:47.342Z,45.72
2022-12-24T06:04:26.538Z,45.53
2022-12-24T06:07:02.246Z,45.38
2022-12-24T06:09:36.577Z,49.30
2022-12-24T06:12:09.394Z,43.47
2022-12-24T06:14:42.322Z,52.83
2022-12-24T06:19:48.436Z,47.50
2022-12-24T06:24:55.769Z,48.15
2022-12-24T06:27:28.923Z,37.55
2022-12-24T06:30:01.797Z,44.20
2022-12-24T06:35:08.434Z,37.05
2022-12-24T06:37:41.377Z,37.45
2022-12-24T06:40:15.944Z,47.30
2022-12-24T06:42:49.286Z,40.63
2022-12-24T06:45:22.630Z,36.75
2022-12-24T06:47:55.748Z,37.10
2022-12-24T06:50:28.894Z,40.55
2022-12-24T06:53:02.070Z,38.05
2022-12-24T06:55:36.541Z,43.38
2022-12-24T06:58:09.920Z,40.38
2022-12-24T07:00:42.868Z,48.13
2022-12-24T07:03:15.755Z,38.47
2022-12-24T07:05:48.972Z,40.80
2022-12-24T07:11:11.249Z,29.38
2022-12-24T07:13:46.871Z,31.98
2022-12-24T07:16:21.788Z,38.38
2022-12-24T07:18:54.937Z,45.80
2022-12-24T07:24:01.004Z,38.88
2022-12-24T07:26:35.721Z,41.10
2022-12-24T07:29:10.370Z,44.53
2022-12-24T07:31:43.516Z,41.28
2022-12-24T07:34:16.717Z,42.28
2022-12-24T07:36:49.954Z,38.05
2022-12-24T07:39:23.194Z,41.55
2022-12-24T07:41:57.667Z,39.63
2022-12-24T07:44:30.966Z,46.03
2022-12-24T07:47:04.013Z,33.33
2022-12-24T07:54:45.610Z,49.28
2022-12-24T07:57:20.083Z,35.45
2022-12-24T07:59:53.179Z,49.47
2022-12-24T08:02:28.947Z,45.95
2022-12-24T08:05:02.160Z,37.42
2022-12-24T08:07:35.021Z,42.35
2022-12-24T08:10:09.233Z,39.80
2022-12-24T08:12:43.377Z,41.55
2022-12-24T08:15:16.238Z,44.53
2022-12-24T08:20:21.769Z,40.70
2022-12-24T08:22:54.966Z,38.30
2022-12-24T08:25:27.848Z,41.60
2022-12-24T08:28:02.314Z,51.53
2022-12-24T08:30:35.398Z,48.97
2022-12-24T08:35:47.719Z,44.78
2022-12-24T08:38:21.514Z,42.45
2022-12-24T08:40:55.379Z,51.53
2022-12-24T08:43:29.947Z,46.28
2022-12-24T08:46:05.204Z,39.13
2022-12-24T08:48:38.610Z,32.50
2022-12-24T08:51:12.927Z,39.45
2022-12-24T08:53:46.993Z,41.88
2022-12-24T08:56:19.881Z,47.20
2022-12-24T08:58:54.312Z,40.05
2022-12-24T09:01:30.186Z,43.75
2022-12-24T09:04:03.546Z,41.75
2022-12-24T09:06:37.588Z,37.20
2022-12-24T09:09:11.014Z,29.20
2022-12-24T09:11:45.358Z,42.17
2022-12-24T09:14:19.821Z,37.17
2022-12-24T09:16:53.510Z,37.88
2022-12-24T09:19:26.577Z,38.35
2022-12-24T09:24:32.346Z,38.83
2022-12-24T09:27:05.641Z,36.92
2022-12-24T09:29:40.770Z,37.58
2022-12-24T09:32:13.672Z,46.60
2022-12-24T09:37:19.992Z,45.92
2022-12-24T09:39:52.873Z,52.92
2022-12-24T09:45:09.338Z,38.53
2022-12-24T09:47:47.494Z,46.65
2022-12-24T09:50:35.014Z,33.65
2022-12-24T09:53:16.930Z,42.65
2022-12-24T09:55:53.267Z,40.67
2022-12-24T09:58:30.745Z,49.15
2022-12-24T10:01:05.659Z,43.92
2022-12-24T10:03:38.803Z,33.63
2022-12-24T10:06:16.451Z,43.47
2022-12-24T10:09:03.181Z,39.58
2022-12-24T10:11:47.956Z,38.75
2022-12-24T10:14:31.386Z,42.83
2022-12-24T10:17:21.663Z,58.72
2022-12-24T10:20:05.016Z,55.70
2022-12-24T10:22:47.971Z,55.20
2022-12-24T10:25:26.172Z,56.08
2022-12-24T10:28:02.241Z,55.17
2022-12-24T10:30:35.711Z,48.55
2022-12-24T10:33:19.586Z,48.70
2022-12-24T10:35:57.687Z,49.80
2022-12-24T10:38:31.714Z,52.47
2022-12-24T10:41:04.526Z,42.40
2022-12-24T10:43:40.168Z,51.83
2022-12-24T10:46:20.188Z,54.22
2022-12-24T10:48:59.568Z,50.47
2022-12-24T10:51:41.871Z,49.45
2022-12-24T10:54:24.423Z,62.10
2022-12-24T10:57:02.094Z,46.80
2022-12-24T10:59:53.295Z,46.60
2022-12-24T11:02:29.397Z,39.85
2022-12-24T11:05:07.535Z,51.25
2022-12-24T11:07:40.422Z,48.65
2022-12-24T11:15:53.339Z,40.63
2022-12-24T11:18:52.794Z,39.50
2022-12-24T11:21:28.783Z,40.15
2022-12-24T11:24:25.872Z,51.30
2022-12-24T11:27:25.433Z,39.28
2022-12-24T11:30:20.852Z,41.67
2022-12-24T11:33:20.000Z,40.67
2022-12-24T11:36:07.916Z,56.55
2022-12-24T11:38:42.374Z,42.65
2022-12-24T11:41:15.797Z,38.00
2022-12-24T11:43:51.429Z,44.78
2022-12-24T11:46:39.186Z,28.05
2022-12-24T11:49:23.832Z,30.77
2022-12-24T11:52:20.737Z,32.15
2022-12-24T11:55:15.633Z,33.63
2022-12-24T11:57:59.532Z,35.88
2022-12-24T12:03:13.256Z,23.15
2022-12-24T12:05:46.311Z,35.60
2022-12-24T12:08:22.717Z,34.38
2022-12-24T12:11:01.822Z,27.23
2022-12-24T12:13:54.769Z,26.13
2022-12-24T12:16:52.555Z,28.48
2022-12-24T12:19:35.986Z,24.98
2022-12-24T12:22:19.077Z,24.17
2022-12-24T12:24:55.969Z,31.15
2022-12-24T12:27:35.012Z,30.30
2022-12-24T12:30:15.624Z,30.00
2022-12-24T12:32:55.154Z,35.40
2022-12-24T12:35:37.674Z,37.15
2022-12-24T12:38:17.122Z,40.30
2022-12-24T12:41:02.805Z,23.27
2022-12-24T12:44:19.621Z,28.40
2022-12-24T12:47:08.209Z,29.20
2022-12-24T12:49:53.728Z,40.95
2022-12-24T12:52:47.345Z,37.88
2022-12-24T12:55:30.589Z,27.83
2022-12-24T12:58:19.514Z,29.58
2022-12-24T13:01:01.009Z,22.13
2022-12-24T13:04:17.607Z,29.83
2022-12-24T13:07:13.724Z,20.80
2022-12-24T13:10:14.769Z,28.25
2022-12-24T13:13:13.042Z,26.75
2022-12-24T13:16:16.115Z,25.05
2022-12-24T13:19:20.224Z,22.90
2022-12-24T13:21:59.062Z,32.03
2022-12-24T13:24:39.134Z,29.33
2022-12-24T13:27:19.332Z,21.33
2022-12-24T13:29:55.019Z,25.75
2022-12-24T13:32:52.120Z,40.30
2022-12-24T13:35:37.917Z,34.65
2022-12-24T13:38:46.539Z,24.65
2022-12-24T13:41:54.261Z,30.38
2022-12-24T13:44:33.146Z,30.92
2022-12-24T13:47:25.431Z,33.67
2022-12-24T13:50:23.276Z,31.42
2022-12-24T13:52:57.164Z,32.53
2022-12-24T13:55:30.857Z,31.63
2022-12-24T13:58:07.920Z,28.15
2022-12-24T14:00:44.687Z,32.28
2022-12-24T14:03:30.695Z,24.65
2022-12-24T14:06:12.252Z,29.27
2022-12-24T14:08:51.233Z,35.80
2022-12-24T14:11:26.063Z,40.45
2022-12-24T14:14:32.462Z,37.10
2022-12-24T14:17:13.818Z,45.88
2022-12-24T14:19:51.262Z,31.48
2022-12-24T14:22:32.036Z,34.58
2022-12-24T14:25:15.038Z,41.45
2022-12-24T14:27:53.459Z,38.35
2022-12-24T14:30:28.015Z,37.17
2022-12-24T14:33:01.036Z,31.92
2022-12-24T14:35:39.479Z,27.73
2022-12-24T14:38:19.104Z,32.63
2022-12-24T14:41:02.122Z,34.65
2022-12-24T14:43:54.799Z,32.47
2022-12-24T14:46:37.764Z,30.10
2022-12-24T14:49:20.672Z,43.95
2022-12-24T14:52:03.248Z,38.35
2022-12-24T14:54:43.053Z,28.15
2022-12-24T14:57:22.545Z,33.00
2022-12-24T14:59:57.534Z,30.58
2022-12-24T15:02:39.118Z,31.63
2022-12-24T15:05:15.950Z,34.95
2022-12-24T15:07:56.904Z,44.40
2022-12-24T15:10:34.730Z,131.25
2022-12-24T15:13:10.857Z,89.80
2022-12-24T15:15:50.173Z,77.40
2022-12-24T15:18:29.068Z,63.58
2022-12-24T15:21:08.414Z,68.18
2022-12-24T15:23:48.204Z,60.50
2022-12-24T15:26:31.744Z,51.20
2022-12-24T15:29:22.231Z,61.63
2022-12-24T15:31:58.926Z,64.15
2022-12-24T15:34:41.809Z,54.13
2022-12-24T15:37:20.605Z,47.30
2022-12-24T15:39:58.644Z,48.25
2022-12-24T15:42:34.040Z,43.67
2022-12-24T15:45:14.813Z,43.45
2022-12-24T15:47:51.067Z,50.25
2022-12-24T15:50:44.618Z,58.25
2022-12-24T15:53:26.007Z,45.45
2022-12-24T15:56:05.127Z,44.72
2022-12-24T15:58:48.643Z,48.88
2022-12-24T16:01:29.695Z,47.45
2022-12-24T16:04:04.314Z,33.15
2022-12-24T16:06:54.454Z,38.20
2022-12-24T16:09:43.460Z,43.63
2022-12-24T16:12:19.529Z,36.80
2022-12-24T16:14:57.541Z,32.97
2022-12-24T16:17:36.135Z,34.25
2022-12-24T16:20:19.833Z,36.70
2022-12-24T16:22:55.424Z,38.05
2022-12-24T16:25:30.488Z,29.38
2022-12-24T16:28:11.268Z,35.42
2022-12-24T16:30:47.468Z,34.95
2022-12-24T16:33:23.497Z,36.05
2022-12-24T16:35:57.572Z,32.75
2022-12-24T16:38:50.845Z,32.95
2022-12-24T16:41:24.309Z,30.88
2022-12-24T16:43:57.566Z,32.78
2022-12-24T16:46:33.244Z,29.15
2022-12-24T16:49:06.804Z,28.90
2022-12-24T16:51:47.572Z,27.85
2022-12-24T16:54:20.881Z,28.63
2022-12-24T16:56:55.348Z,27.50
2022-12-24T16:59:30.909Z,37.72
2022-12-24T17:02:14.223Z,30.15
2022-12-24T17:04:57.726Z,37.17
2022-12-24T17:07:34.411Z,36.58
2022-12-24T17:10:11.707Z,31.52
2022-12-24T17:12:46.342Z,30.42
2022-12-24T17:15:19.989Z,30.77
2022-12-24T17:17:55.096Z,29.70
2022-12-24T17:20:32.978Z,28.52
2022-12-24T17:23:08.849Z,27.63
2022-12-24T17:25:41.904Z,29.42
2022-12-24T17:28:16.854Z,30.20
2022-12-24T17:30:53.227Z,29.65
2022-12-24T17:33:29.027Z,36.63
2022-12-24T17:36:02.367Z,57.25
2022-12-24T17:38:37.800Z,41.78
2022-12-24T17:41:12.696Z,45.13
2022-12-24T17:43:46.102Z,49.05
2022-12-24T17:46:23.811Z,36.90
2022-12-24T17:48:58.310Z,35.78
2022-12-24T17:51:33.433Z,34.97
2022-12-24T17:54:06.574Z,31.67
2022-12-24T17:56:39.696Z,30.77
2022-12-24T17:59:12.696Z,37.33
2022-12-24T18:01:45.812Z,35.75
2022-12-24T18:04:20.070Z,45.30
2022-12-24T18:07:02.416Z,32.15
2022-12-24T18:09:36.302Z,36.10
2022-12-24T18:12:09.644Z,37.63
2022-12-24T18:14:42.836Z,39.08
2022-12-24T18:17:15.978Z,45.83
2022-12-24T18:19:50.692Z,37.75
2022-12-24T18:22:26.067Z,35.20
2022-12-24T18:25:01.454Z,32.22
2022-12-24T18:27:36.152Z,31.50
2022-12-24T18:30:12.586Z,35.72
2022-12-24T18:32:51.417Z,32.78
2022-12-24T18:35:30.911Z,34.05
2022-12-24T18:38:04.041Z,31.63
2022-12-24T18:40:39.474Z,34.25
2022-12-24T18:43:12.887Z,43.28
2022-12-24T18:45:49.066Z,36.22
2022-12-24T18:48:26.436Z,34.85
2022-12-24T18:51:08.490Z,31.83
2022-12-24T18:53:41.700Z,40.17
2022-12-24T18:56:16.680Z,30.67
2022-12-24T18:58:50.761Z,36.83
2022-12-24T19:01:27.794Z,25.98
2022-12-24T19:04:05.667Z,28.42
2022-12-24T19:06:40.417Z,32.10
2022-12-24T19:09:13.543Z,27.88
2022-12-24T19:11:46.644Z,35.60
2022-12-24T19:14:21.048Z,44.25
2022-12-24T19:16:57.233Z,44.20
2022-12-24T19:19:30.829Z,35.45
2022-12-24T19:22:05.557Z,38.50
2022-12-24T19:24:38.903Z,38.55
2022-12-24T19:27:20.014Z,36.55
2022-12-24T19:29:53.095Z,36.17
2022-12-24T19:32:26.391Z,35.42
2022-12-24T19:35:02.057Z,35.47
2022-12-24T19:37:36.511Z,39.78
2022-12-24T19:40:10.787Z,31.90
2022-12-24T19:42:44.623Z,35.97
2022-12-24T19:45:17.846Z,37.40
2022-12-24T19:47:52.437Z,29.30
2022-12-24T19:50:25.971Z,37.67
2022-12-24T19:53:01.306Z,37.50
2022-12-24T19:55:34.336Z,29.08
2022-12-24T19:58:07.575Z,35.72
2022-12-24T20:00:40.652Z,42.03
2022-12-24T20:03:14.202Z,36.05
2022-12-24T20:05:47.434Z,37.10
2022-12-24T20:08:29.712Z,38.67
2022-12-24T20:11:06.736Z,36.45
2022-12-24T20:13:40.958Z,38.97
2022-12-24T20:16:17.086Z,32.13
2022-12-24T20:19:55.654Z,33.28
2022-12-24T20:22:34.653Z,39.05
2022-12-24T20:25:10.100Z,37.58
2022-12-24T20:27:43.398Z,37.13
2022-12-24T20:30:17.190Z,38.75
2022-12-24T20:32:56.876Z,36.78
2022-12-24T20:35:35.537Z,37.80
2022-12-24T20:38:09.032Z,38.58
2022-12-24T20:41:09.934Z,37.33
2022-12-24T20:43:48.185Z,33.58
2022-12-24T20:46:26.391Z,36.03
2022-12-24T20:48:59.915Z,35.50
2022-12-24T20:51:35.287Z,33.67
2022-12-24T20:54:11.351Z,36.05
2022-12-24T20:56:46.016Z,34.10
2022-12-24T20:59:32.844Z,30.95
2022-12-24T21:02:06.475Z,39.28
2022-12-24T21:36:15.430Z,38.40
2022-12-24T21:38:48.946Z,41.45
2022-12-24T21:41:23.945Z,32.92
2022-12-24T21:43:56.895Z,44.35
2022-12-24T21:49:23.909Z,36.92
2022-12-24T21:51:57.043Z,39.13
2022-12-24T21:54:31.221Z,38.55
2022-12-24T21:57:23.298Z,42.33
2022-12-24T22:00:17.999Z,34.55
2022-12-24T22:02:52.103Z,42.05
2022-12-24T22:05:27.372Z,37.15
2022-12-24T22:08:18.434Z,43.30
2022-12-24T22:11:09.041Z,30.23
2022-12-24T22:13:41.908Z,34.45
2022-12-24T22:16:14.819Z,34.38
2022-12-24T22:18:47.658Z,34.75
2022-12-24T22:21:21.916Z,29.75
2022-12-24T22:23:54.817Z,35.17
2022-12-24T22:29:00.446Z,27.30
2022-12-24T22:31:33.569Z,29.98
2022-12-24T22:34:06.391Z,27.95
2022-12-24T22:36:40.520Z,36.38
2022-12-24T22:39:15.322Z,35.65
2022-12-24T22:41:48.173Z,36.47
2022-12-24T22:44:21.151Z,39.72
2022-12-24T22:49:27.146Z,36.60
2022-12-24T22:52:01.330Z,28.85
2022-12-24T22:54:35.253Z,26.33
2022-12-24T22:57:08.160Z,36.17
2022-12-24T22:59:40.993Z,29.33
2022-12-24T23:02:13.885Z,34.20
2022-12-24T23:07:20.882Z,32.07
2022-12-24T23:09:53.911Z,30.88
2022-12-24T23:12:40.653Z,33.22
2022-12-24T23:15:13.778Z,26.33
2022-12-24T23:17:49.541Z,27.50
2022-12-24T23:20:22.212Z,32.15
2022-12-24T23:22:56.378Z,32.72
2022-12-24T23:25:29.247Z,28.92
2022-12-24T23:28:02.005Z,29.30
2022-12-24T23:30:34.753Z,28.00
2022-12-24T23:33:07.632Z,27.88
2022-12-24T23:35:40.945Z,27.85
2022-12-24T23:38:15.249Z,25.80
2022-12-24T23:40:49.073Z,27.27
2022-12-24T23:43:22.486Z,31.70
2022-12-24T23:48:28.422Z,27.85
2022-12-24T23:51:06.159Z,28.15
2022-12-24T23:53:40.510Z,32.88
2022-12-24T23:56:14.593Z,35.20
2022-12-24T23:58:47.590Z,28.73
